Bookmark and Share
Track history (hours):
 

Shokyu Maru

Last reported at 2014-Apr-23 09:33 UTC. Time now 2014-Apr-23 09:47 UTC.
Position N 35°24' E 139°40'.

Length 91 m; draft 5.1 m.

Type: Tanker. MMSI: 431000253.

NotesDate/timePositionNaut miles runAvg speedWind from/ knotsBaromVisibWave heightAir tempDewpointWater temp
2014-Apr-23 09:33N 35°24' E 139°40'0 0.1
2014-Apr-23 08:32N 35°24' E 139°40'0 0.0
2014-Apr-23 07:32N 35°24' E 139°40'0 0.0
2014-Apr-23 06:32N 35°24' E 139°40'0 0.0
2014-Apr-23 05:33N 35°24' E 139°40'6 6.2
2014-Apr-23 04:33N 35°27' E 139°46'5 4.6
2014-Apr-23 03:33N 35°31' E 139°50'3 3.3
2014-Apr-23 02:33N 35°33' E 139°53'8 7.6
2014-Apr-23 01:29N 35°41' E 139°56'0 0.0
2014-Apr-23 00:29N 35°41' E 139°56'0 0.0
2014-Apr-22 23:29N 35°41' E 139°56'0 0.0
2014-Apr-22 22:26N 35°41' E 139°56'4 4.2
2014-Apr-22 21:33N 35°37' E 139°59'4 3.3
2014-Apr-22 20:24N 35°35' E 139°55'0 0.0
2014-Apr-22 19:33N 35°35' E 139°55'0 0.0
2014-Apr-22 18:30N 35°35' E 139°55'0 0.0
2014-Apr-22 17:33N 35°35' E 139°55'0 0.1
2014-Apr-22 16:30N 35°35' E 139°55'0 0.1
2014-Apr-22 15:33N 35°35' E 139°55'0 0.0
2014-Apr-22 14:33N 35°35' E 139°55'0 0.0
2014-Apr-22 13:30N 35°35' E 139°55'0 0.0
2014-Apr-22 12:33N 35°35' E 139°55'0 0.0
2014-Apr-22 11:30N 35°35' E 139°55'0 0.0
2014-Apr-22 10:27N 35°35' E 139°55'0 0.1
2014-Apr-22 09:33N 35°35' E 139°55'0 0.0
2014-Apr-22 08:33N 35°35' E 139°55'0 0.0
2014-Apr-22 07:33N 35°35' E 139°55'5 5.4
2014-Apr-22 06:33N 35°32' E 140°00'2 1.8
2014-Apr-22 05:27N 35°31' E 140°02'0 0.0
2014-Apr-22 04:33N 35°31' E 140°02'0 0.0
2014-Apr-22 03:33N 35°31' E 140°02'3 3.3
2014-Apr-22 02:34N 35°33' E 139°60'8 7.4
2014-Apr-22 01:31N 35°41' E 139°56'0 0.0
2014-Apr-22 00:28N 35°41' E 139°56'0 0.0
2014-Apr-21 23:34N 35°41' E 139°56'0 0.0
2014-Apr-21 22:34N 35°41' E 139°56'2 2.3
2014-Apr-21 21:33N 35°39' E 139°58'5 4.5
2014-Apr-21 20:33N 35°35' E 139°55'0 0.0
2014-Apr-21 19:33N 35°35' E 139°55'0 0.0
2014-Apr-21 18:33N 35°35' E 139°55'0 0.0
2014-Apr-21 17:33N 35°35' E 139°55'0 0.0
2014-Apr-21 16:33N 35°35' E 139°55'0 0.0
2014-Apr-21 15:33N 35°35' E 139°55'0 0.0
2014-Apr-21 14:33N 35°35' E 139°55'0 0.0
2014-Apr-21 13:33N 35°35' E 139°55'0 0.0
2014-Apr-21 12:33N 35°35' E 139°55'5 4.7
2014-Apr-21 11:33N 35°31' E 139°58'4 3.2
2014-Apr-21 10:25N 35°28' E 140°01'0 0.0
2014-Apr-21 09:31N 35°28' E 140°01'0 0.0
2014-Apr-21 08:31N 35°28' E 140°01'0 0.0
2014-Apr-21 07:28N 35°28' E 140°01'0 0.0
2014-Apr-21 06:31N 35°28' E 140°01'0 0.0
2014-Apr-21 05:22N 35°28' E 140°01'3 3.6
2014-Apr-21 04:33N 35°31' E 139°59'6 6.4
2014-Apr-21 03:33N 35°37' E 139°59'4 3.7
2014-Apr-21 02:28N 35°41' E 139°56'0 0.1
2014-Apr-21 01:31N 35°41' E 139°56'0 0.0
2014-Apr-21 00:28N 35°41' E 139°56'0 0.0
2014-Apr-20 23:31N 35°41' E 139°56'0 0.0
2014-Apr-20 22:25N 35°41' E 139°56'3 3.4
2014-Apr-20 21:34N 35°38' E 139°59'4 3.9
2014-Apr-20 20:31N 35°35' E 139°55'0 0.0
2014-Apr-20 19:31N 35°35' E 139°55'0 0.0
2014-Apr-20 18:31N 35°35' E 139°55'0 0.0
2014-Apr-20 17:16N 35°35' E 139°55'0 0.0
2014-Apr-20 16:31N 35°35' E 139°55'0 0.0
2014-Apr-20 15:31N 35°35' E 139°55'0 0.0
2014-Apr-20 14:25N 35°35' E 139°55'0 0.0
2014-Apr-20 13:31N 35°35' E 139°55'5 5.4
2014-Apr-20 12:33N 35°30' E 139°52'1110.6
2014-Apr-20 11:34N 35°24' E 139°43'3 2.6
2014-Apr-20 10:31N 35°24' E 139°40'0 0.0
2014-Apr-20 09:31N 35°24' E 139°40'0 0.0
2014-Apr-20 08:31N 35°24' E 139°40'0 0.0
2014-Apr-20 07:31N 35°24' E 139°40'0 0.0
2014-Apr-20 06:31N 35°24' E 139°40'1 0.7
2014-Apr-20 05:33N 35°24' E 139°40'3 3.5
2014-Apr-20 04:33N 35°25' E 139°43'8 8.4
2014-Apr-20 03:33N 35°31' E 139°51'1010.3
2014-Apr-20 02:33N 35°40' E 139°58'1 1.3
2014-Apr-20 01:33N 35°41' E 139°56'0 0.0
2014-Apr-20 00:32N 35°41' E 139°56'0 0.0
2014-Apr-19 23:32N 35°41' E 139°56'0 0.0
2014-Apr-19 22:30N 35°41' E 139°56'2 2.2
2014-Apr-19 21:33N 35°39' E 139°58'5 5.0
2014-Apr-19 20:31N 35°35' E 139°55'0 0.0
2014-Apr-19 19:28N 35°35' E 139°55'0 0.1
2014-Apr-19 18:28N 35°35' E 139°55'0 0.0
2014-Apr-19 17:28N 35°35' E 139°55'0 0.0
2014-Apr-19 16:28N 35°35' E 139°55'0 0.0
2014-Apr-19 15:28N 35°35' E 139°55'0 0.1
2014-Apr-19 14:31N 35°35' E 139°55'0 0.1
2014-Apr-19 13:34N 35°35' E 139°55'8 7.8
2014-Apr-19 12:33N 35°31' E 139°46'0 0.2
2014-Apr-19 11:32N 35°31' E 139°46'0 0.1
2014-Apr-19 10:32N 35°31' E 139°46'0 0.1
2014-Apr-19 09:32N 35°31' E 139°46'0 0.0
2014-Apr-19 08:29N 35°31' E 139°46'0 0.0
2014-Apr-19 07:32N 35°31' E 139°46'0 0.0
2014-Apr-19 06:32N 35°31' E 139°46'4 4.4
2014-Apr-19 05:34N 35°28' E 139°42'9 9.3
2014-Apr-19 04:34N 35°32' E 139°53'9 9.3
2014-Apr-19 03:33N 35°40' E 139°57'0 0.1
2014-Apr-19 02:32N 35°41' E 139°56'0 0.0
2014-Apr-19 01:32N 35°41' E 139°56'0 0.0
2014-Apr-19 00:32N 35°41' E 139°56'0 0.0
2014-Apr-18 23:33N 35°41' E 139°56'5 4.8
2014-Apr-18 22:33N 35°36' E 139°56'1 0.7
2014-Apr-18 21:33N 35°35' E 139°55'0 0.0
2014-Apr-18 20:33N 35°35' E 139°55'0 0.0
2014-Apr-18 19:12N 35°35' E 139°55'0 0.0
2014-Apr-18 18:33N 35°35' E 139°55'0 0.0
2014-Apr-18 17:33N 35°35' E 139°55'0 0.0
2014-Apr-18 16:30N 35°35' E 139°55'0 0.0
2014-Apr-18 15:30N 35°35' E 139°55'0 0.0
2014-Apr-18 14:33N 35°35' E 139°55'0 0.0
2014-Apr-18 13:33N 35°35' E 139°55'0 0.0
2014-Apr-18 12:33N 35°35' E 139°55'0 0.0
2014-Apr-18 11:33N 35°35' E 139°55'0 0.0
2014-Apr-18 10:27N 35°35' E 139°55'0 0.0
2014-Apr-18 09:27N 35°35' E 139°55'3 3.3
2014-Apr-18 08:33N 35°33' E 139°54'10 9.6
2014-Apr-18 07:33N 35°25' E 139°46'5 5.2
2014-Apr-18 06:32N 35°24' E 139°40'0 0.0
2014-Apr-18 05:32N 35°24' E 139°40'0 0.0
2014-Apr-18 04:32N 35°24' E 139°40'0 0.0
2014-Apr-18 03:32N 35°24' E 139°40'0 0.1
2014-Apr-18 02:33N 35°24' E 139°39'6 5.6
2014-Apr-18 01:33N 35°26' E 139°46'1212.2
2014-Apr-18 00:33N 35°33' E 139°59'7 6.3
2014-Apr-17 23:30N 35°36' E 140°06'0 0.0
2014-Apr-17 22:33N 35°36' E 140°06'0 0.0
2014-Apr-17 21:24N 35°36' E 140°06'0 0.0
2014-Apr-17 20:27N 35°36' E 140°06'0 0.0
2014-Apr-17 19:24N 35°36' E 140°06'0 0.0
2014-Apr-17 18:33N 35°36' E 140°06'0 0.0
2014-Apr-17 17:27N 35°36' E 140°06'0 0.0
2014-Apr-17 16:30N 35°36' E 140°06'0 0.0
2014-Apr-17 15:30N 35°36' E 140°06'0 0.0
2014-Apr-17 14:33N 35°36' E 140°06'0 0.0
2014-Apr-17 13:33N 35°36' E 140°06'0 0.0
2014-Apr-17 12:30N 35°36' E 140°06'0 0.0
2014-Apr-17 11:27N 35°36' E 140°06'0 0.0
2014-Apr-17 10:30N 35°36' E 140°06'0 0.0
2014-Apr-17 09:33N 35°36' E 140°06'0 0.0
2014-Apr-17 08:33N 35°36' E 140°06'0 0.0
2014-Apr-17 07:33N 35°36' E 140°06'0 0.0
2014-Apr-17 06:33N 35°36' E 140°06'0 0.0
2014-Apr-17 05:33N 35°36' E 140°06'0 0.0
2014-Apr-17 04:33N 35°36' E 140°06'4 4.1
2014-Apr-17 03:33N 35°34' E 140°01'6 5.7
2014-Apr-17 02:33N 35°35' E 139°54'6 6.2
2014-Apr-17 01:34N 35°41' E 139°57'0 0.1
2014-Apr-17 00:28N 35°41' E 139°56'0 0.0
2014-Apr-16 23:31N 35°41' E 139°56'0 0.0
2014-Apr-16 22:28N 35°41' E 139°56'2 2.5
2014-Apr-16 21:33N 35°39' E 139°58'5 4.6
2014-Apr-16 20:31N 35°35' E 139°55'0 0.0
2014-Apr-16 19:31N 35°35' E 139°55'0 0.0
2014-Apr-16 18:28N 35°35' E 139°55'0 0.0
2014-Apr-16 17:28N 35°35' E 139°55'0 0.1
2014-Apr-16 16:31N 35°35' E 139°55'0 0.1
2014-Apr-16 15:31N 35°35' E 139°55'0 0.0
2014-Apr-16 14:31N 35°35' E 139°55'5 4.9
2014-Apr-16 13:33N 35°31' E 139°51'4 3.8
2014-Apr-16 12:31N 35°31' E 139°46'0 0.0
2014-Apr-16 11:28N 35°31' E 139°46'0 0.0
2014-Apr-16 10:28N 35°31' E 139°46'0 0.0
2014-Apr-16 09:28N 35°31' E 139°46'0 0.0
2014-Apr-16 08:28N 35°31' E 139°46'4 4.7
2014-Apr-16 07:33N 35°28' E 139°42'7 7.5
2014-Apr-16 06:33N 35°30' E 139°51'10 9.9
2014-Apr-16 05:33N 35°38' E 139°58'3 3.0
2014-Apr-16 04:32N 35°41' E 139°56'0 0.0
2014-Apr-16 03:29N 35°41' E 139°56'0 0.0
2014-Apr-16 02:29N 35°41' E 139°56'0 0.0
2014-Apr-16 01:29N 35°41' E 139°56'2 2.1
2014-Apr-16 00:33N 35°39' E 139°58'4 4.1
2014-Apr-15 23:32N 35°36' E 139°55'0 0.0
2014-Apr-15 22:17N 35°36' E 139°55'0 0.0
2014-Apr-15 21:32N 35°36' E 139°55'0 0.0
2014-Apr-15 20:29N 35°36' E 139°55'0 0.0
2014-Apr-15 19:17N 35°36' E 139°55'0 0.0
2014-Apr-15 18:32N 35°36' E 139°55'0 0.0
2014-Apr-15 17:29N 35°36' E 139°55'0 0.1
2014-Apr-15 16:32N 35°36' E 139°55'0 0.0
2014-Apr-15 15:29N 35°36' E 139°55'0 0.1
2014-Apr-15 14:32N 35°36' E 139°55'0 0.0
2014-Apr-15 11:32N 35°36' E 139°55'0 0.0
2014-Apr-15 10:34N 35°36' E 139°55'8 7.8
2014-Apr-15 09:34N 35°30' E 139°48'2 2.1
2014-Apr-15 08:33N 35°31' E 139°46'0 0.0
2014-Apr-15 07:33N 35°31' E 139°46'0 0.0
2014-Apr-15 06:30N 35°31' E 139°46'0 0.0
2014-Apr-15 05:33N 35°31' E 139°46'1 0.4
2014-Apr-15 03:34N 35°30' E 139°46'3 2.6
2014-Apr-15 02:34N 35°28' E 139°48'1010.0
2014-Apr-15 01:34N 35°35' E 139°56'5 5.3
2014-Apr-15 00:33N 35°41' E 139°56'0 0.0
2014-Apr-14 23:33N 35°41' E 139°56'0 0.0
2014-Apr-14 22:30N 35°41' E 139°56'0 0.0
2014-Apr-14 21:33N 35°41' E 139°56'2 2.1
2014-Apr-14 20:34N 35°39' E 139°58'4 4.4
2014-Apr-14 19:33N 35°35' E 139°55'0 0.0
2014-Apr-14 18:33N 35°35' E 139°55'0 0.0
2014-Apr-14 17:33N 35°35' E 139°55'0 0.0
2014-Apr-14 16:33N 35°35' E 139°55'0 0.0
2014-Apr-14 15:33N 35°35' E 139°55'0 0.0
2014-Apr-14 14:33N 35°35' E 139°55'0 0.0
2014-Apr-14 13:30N 35°35' E 139°55'4 2.3
2014-Apr-14 11:33N 35°31' E 139°52'5 5.0
2014-Apr-14 10:31N 35°32' E 139°46'0 0.0
2014-Apr-14 09:31N 35°32' E 139°46'0 0.0
2014-Apr-14 08:31N 35°32' E 139°46'0 0.0
2014-Apr-14 07:31N 35°32' E 139°46'0 0.0
2014-Apr-14 06:31N 35°32' E 139°46'4 3.7
2014-Apr-14 05:33N 35°29' E 139°43'9 1.3
2014-Apr-13 22:33N 35°28' E 139°54'0 0.0
2014-Apr-13 21:33N 35°28' E 139°54'0 0.0
2014-Apr-13 20:33N 35°28' E 139°54'0 0.0
2014-Apr-13 19:33N 35°28' E 139°54'0 0.0
2014-Apr-13 18:33N 35°28' E 139°54'0 0.0
2014-Apr-13 17:30N 35°28' E 139°54'0 0.1
2014-Apr-13 16:33N 35°28' E 139°54'0 0.0
2014-Apr-13 15:30N 35°29' E 139°54'0 0.0
2014-Apr-13 14:33N 35°28' E 139°54'0 0.0
2014-Apr-13 13:30N 35°28' E 139°54'0 0.0
2014-Apr-13 12:33N 35°28' E 139°54'0 0.0
2014-Apr-13 11:33N 35°28' E 139°54'0 0.0
2014-Apr-13 10:33N 35°28' E 139°54'  

Dump ship's entire track history

sailing weather and tide predictions

Shokyu Maru — JG5288 — position and weather